sensor_id;sensor_type;location;lat;lon;timestamp;P1;durP1;ratioP1;P2;durP2;ratioP2
23990;SDS011;12205;50.600;4.608;2023-09-08T00:00:18;5.15;;;1.20;;
23990;SDS011;12205;50.600;4.608;2023-09-08T00:02:45;3.80;;;1.08;;
23990;SDS011;12205;50.600;4.608;2023-09-08T00:05:12;6.30;;;1.15;;
23990;SDS011;12205;50.600;4.608;2023-09-08T00:07:39;4.57;;;1.40;;
23990;SDS011;12205;50.600;4.608;2023-09-08T00:10:07;5.10;;;1.05;;
23990;SDS011;12205;50.600;4.608;2023-09-08T00:12:34;5.15;;;1.20;;
23990;SDS011;12205;50.600;4.608;2023-09-08T00:15:02;3.70;;;1.10;;
23990;SDS011;12205;50.600;4.608;2023-09-08T00:17:29;3.67;;;1.15;;
23990;SDS011;12205;50.600;4.608;2023-09-08T00:19:56;5.88;;;1.40;;
23990;SDS011;12205;50.600;4.608;2023-09-08T00:22:23;4.93;;;1.13;;
23990;SDS011;12205;50.600;4.608;2023-09-08T00:24:50;4.57;;;1.13;;
23990;SDS011;12205;50.600;4.608;2023-09-08T00:27:18;2.75;;;1.13;;
23990;SDS011;12205;50.600;4.608;2023-09-08T00:29:45;6.28;;;1.10;;
23990;SDS011;12205;50.600;4.608;2023-09-08T00:32:12;4.25;;;1.15;;
23990;SDS011;12205;50.600;4.608;2023-09-08T00:34:40;6.50;;;1.38;;
23990;SDS011;12205;50.600;4.608;2023-09-08T00:37:07;3.22;;;1.20;;
23990;SDS011;12205;50.600;4.608;2023-09-08T00:39:35;4.50;;;1.20;;
23990;SDS011;12205;50.600;4.608;2023-09-08T00:42:02;3.90;;;1.20;;
23990;SDS011;12205;50.600;4.608;2023-09-08T00:44:30;6.53;;;1.10;;
23990;SDS011;12205;50.600;4.608;2023-09-08T00:46:57;3.67;;;1.20;;
23990;SDS011;12205;50.600;4.608;2023-09-08T00:49:24;3.22;;;1.15;;
23990;SDS011;12205;50.600;4.608;2023-09-08T00:51:52;3.38;;;1.00;;
23990;SDS011;12205;50.600;4.608;2023-09-08T00:54:18;4.28;;;1.30;;
23990;SDS011;12205;50.600;4.608;2023-09-08T00:56:46;6.90;;;1.10;;
23990;SDS011;12205;50.600;4.608;2023-09-08T00:59:14;6.50;;;1.38;;
23990;SDS011;12205;50.600;4.608;2023-09-08T01:01:43;3.20;;;1.10;;
23990;SDS011;12205;50.600;4.608;2023-09-08T01:04:10;4.25;;;1.00;;
23990;SDS011;12205;50.600;4.608;2023-09-08T01:06:37;4.88;;;1.05;;
23990;SDS011;12205;50.600;4.608;2023-09-08T01:09:04;5.93;;;1.23;;
23990;SDS011;12205;50.600;4.608;2023-09-08T01:11:32;4.63;;;1.30;;
23990;SDS011;12205;50.600;4.608;2023-09-08T01:13:59;2.35;;;1.00;;
23990;SDS011;12205;50.600;4.608;2023-09-08T01:16:26;4.78;;;1.30;;
23990;SDS011;12205;50.600;4.608;2023-09-08T01:18:54;2.92;;;0.90;;
23990;SDS011;12205;50.600;4.608;2023-09-08T01:21:29;3.42;;;1.40;;
23990;SDS011;12205;50.600;4.608;2023-09-08T01:26:59;4.70;;;1.40;;
23990;SDS011;12205;50.600;4.608;2023-09-08T01:29:26;6.10;;;1.20;;
23990;SDS011;12205;50.600;4.608;2023-09-08T01:31:55;3.03;;;1.00;;
23990;SDS011;12205;50.600;4.608;2023-09-08T01:34:25;4.28;;;1.20;;
23990;SDS011;12205;50.600;4.608;2023-09-08T01:36:52;5.07;;;1.20;;
23990;SDS011;12205;50.600;4.608;2023-09-08T01:39:19;4.78;;;1.20;;
23990;SDS011;12205;50.600;4.608;2023-09-08T01:41:45;4.55;;;1.40;;
23990;SDS011;12205;50.600;4.608;2023-09-08T01:44:14;7.97;;;1.40;;
23990;SDS011;12205;50.600;4.608;2023-09-08T01:46:41;3.13;;;1.20;;
23990;SDS011;12205;50.600;4.608;2023-09-08T01:49:07;6.90;;;1.20;;
23990;SDS011;12205;50.600;4.608;2023-09-08T01:51:35;5.15;;;1.27;;
23990;SDS011;12205;50.600;4.608;2023-09-08T01:54:02;4.50;;;1.35;;
23990;SDS011;12205;50.600;4.608;2023-09-08T01:56:28;4.07;;;1.05;;
23990;SDS011;12205;50.600;4.608;2023-09-08T01:58:55;4.13;;;1.23;;
23990;SDS011;12205;50.600;4.608;2023-09-08T02:01:25;5.63;;;1.20;;
23990;SDS011;12205;50.600;4.608;2023-09-08T02:03:52;6.72;;;1.50;;
23990;SDS011;12205;50.600;4.608;2023-09-08T02:06:19;5.30;;;1.50;;
23990;SDS011;12205;50.600;4.608;2023-09-08T02:08:46;5.00;;;1.30;;
23990;SDS011;12205;50.600;4.608;2023-09-08T02:11:13;3.75;;;1.60;;
23990;SDS011;12205;50.600;4.608;2023-09-08T02:13:40;4.88;;;1.10;;
23990;SDS011;12205;50.600;4.608;2023-09-08T02:16:12;4.15;;;1.20;;
23990;SDS011;12205;50.600;4.608;2023-09-08T02:18:41;8.68;;;1.50;;
23990;SDS011;12205;50.600;4.608;2023-09-08T02:21:07;6.00;;;1.52;;
23990;SDS011;12205;50.600;4.608;2023-09-08T02:23:34;4.32;;;1.45;;
23990;SDS011;12205;50.600;4.608;2023-09-08T02:26:01;5.00;;;1.60;;
23990;SDS011;12205;50.600;4.608;2023-09-08T02:28:28;5.93;;;1.45;;
23990;SDS011;12205;50.600;4.608;2023-09-08T02:30:56;6.43;;;1.60;;
23990;SDS011;12205;50.600;4.608;2023-09-08T02:33:23;4.80;;;1.20;;
23990;SDS011;12205;50.600;4.608;2023-09-08T02:35:51;3.95;;;1.35;;
23990;SDS011;12205;50.600;4.608;2023-09-08T02:38:18;7.65;;;1.60;;
23990;SDS011;12205;50.600;4.608;2023-09-08T02:40:46;7.65;;;1.73;;
23990;SDS011;12205;50.600;4.608;2023-09-08T02:43:13;2.28;;;0.93;;
23990;SDS011;12205;50.600;4.608;2023-09-08T02:45:41;6.95;;;1.33;;
23990;SDS011;12205;50.600;4.608;2023-09-08T02:48:08;4.47;;;1.20;;
23990;SDS011;12205;50.600;4.608;2023-09-08T02:50:35;4.93;;;1.35;;
23990;SDS011;12205;50.600;4.608;2023-09-08T02:53:03;5.25;;;1.10;;
23990;SDS011;12205;50.600;4.608;2023-09-08T02:55:30;6.35;;;1.38;;
23990;SDS011;12205;50.600;4.608;2023-09-08T02:57:57;4.60;;;1.38;;
23990;SDS011;12205;50.600;4.608;2023-09-08T03:00:24;5.07;;;1.52;;
23990;SDS011;12205;50.600;4.608;2023-09-08T03:02:51;7.88;;;1.30;;
23990;SDS011;12205;50.600;4.608;2023-09-08T03:05:18;5.15;;;1.45;;
23990;SDS011;12205;50.600;4.608;2023-09-08T03:07:47;6.40;;;1.63;;
23990;SDS011;12205;50.600;4.608;2023-09-08T03:10:15;6.72;;;1.48;;
23990;SDS011;12205;50.600;4.608;2023-09-08T03:12:42;4.97;;;1.30;;
23990;SDS011;12205;50.600;4.608;2023-09-08T03:15:10;5.00;;;1.58;;
23990;SDS011;12205;50.600;4.608;2023-09-08T03:17:37;6.75;;;1.50;;
23990;SDS011;12205;50.600;4.608;2023-09-08T03:20:04;8.43;;;1.40;;
23990;SDS011;12205;50.600;4.608;2023-09-08T03:22:33;3.85;;;1.40;;
23990;SDS011;12205;50.600;4.608;2023-09-08T03:25:00;3.42;;;1.25;;
23990;SDS011;12205;50.600;4.608;2023-09-08T03:27:28;5.90;;;1.30;;
23990;SDS011;12205;50.600;4.608;2023-09-08T03:29:55;6.10;;;1.30;;
23990;SDS011;12205;50.600;4.608;2023-09-08T03:32:25;4.88;;;1.30;;
23990;SDS011;12205;50.600;4.608;2023-09-08T03:34:54;8.32;;;1.63;;
23990;SDS011;12205;50.600;4.608;2023-09-08T03:37:21;3.15;;;1.45;;
23990;SDS011;12205;50.600;4.608;2023-09-08T03:39:48;5.13;;;1.45;;
23990;SDS011;12205;50.600;4.608;2023-09-08T03:42:15;6.65;;;1.50;;
23990;SDS011;12205;50.600;4.608;2023-09-08T03:44:44;4.88;;;1.50;;
23990;SDS011;12205;50.600;4.608;2023-09-08T03:47:11;5.22;;;1.50;;
23990;SDS011;12205;50.600;4.608;2023-09-08T03:49:37;8.05;;;1.55;;
23990;SDS011;12205;50.600;4.608;2023-09-08T03:52:04;4.53;;;1.63;;
23990;SDS011;12205;50.600;4.608;2023-09-08T03:54:32;11.07;;;2.08;;
23990;SDS011;12205;50.600;4.608;2023-09-08T03:56:59;5.68;;;1.60;;
23990;SDS011;12205;50.600;4.608;2023-09-08T03:59:26;6.57;;;1.88;;
23990;SDS011;12205;50.600;4.608;2023-09-08T04:01:54;7.95;;;1.60;;
23990;SDS011;12205;50.600;4.608;2023-09-08T04:04:21;4.82;;;1.73;;
23990;SDS011;12205;50.600;4.608;2023-09-08T04:06:48;3.33;;;1.40;;
23990;SDS011;12205;50.600;4.608;2023-09-08T04:09:15;2.83;;;1.20;;
23990;SDS011;12205;50.600;4.608;2023-09-08T04:11:42;4.55;;;1.27;;
23990;SDS011;12205;50.600;4.608;2023-09-08T04:14:09;4.10;;;1.20;;
23990;SDS011;12205;50.600;4.608;2023-09-08T04:16:36;5.65;;;1.38;;
23990;SDS011;12205;50.600;4.608;2023-09-08T04:19:04;4.78;;;1.42;;
23990;SDS011;12205;50.600;4.608;2023-09-08T04:21:31;6.15;;;1.55;;
23990;SDS011;12205;50.600;4.608;2023-09-08T04:23:59;8.48;;;1.80;;
23990;SDS011;12205;50.600;4.608;2023-09-08T04:26:26;9.85;;;1.50;;
23990;SDS011;12205;50.600;4.608;2023-09-08T04:28:53;16.88;;;1.85;;
23990;SDS011;12205;50.600;4.608;2023-09-08T04:31:20;7.50;;;1.70;;
23990;SDS011;12205;50.600;4.608;2023-09-08T04:33:47;4.97;;;1.70;;
23990;SDS011;12205;50.600;4.608;2023-09-08T04:36:15;2.78;;;1.45;;
23990;SDS011;12205;50.600;4.608;2023-09-08T04:38:42;6.70;;;1.65;;
23990;SDS011;12205;50.600;4.608;2023-09-08T04:41:09;5.20;;;1.38;;
23990;SDS011;12205;50.600;4.608;2023-09-08T04:43:36;3.35;;;1.48;;
23990;SDS011;12205;50.600;4.608;2023-09-08T04:46:03;6.18;;;1.77;;
23990;SDS011;12205;50.600;4.608;2023-09-08T04:48:30;6.45;;;1.70;;
23990;SDS011;12205;50.600;4.608;2023-09-08T04:50:57;4.85;;;1.75;;
23990;SDS011;12205;50.600;4.608;2023-09-08T04:53:26;10.68;;;2.30;;
23990;SDS011;12205;50.600;4.608;2023-09-08T04:55:53;4.15;;;1.80;;
23990;SDS011;12205;50.600;4.608;2023-09-08T04:58:20;5.50;;;1.75;;
23990;SDS011;12205;50.600;4.608;2023-09-08T05:00:48;3.70;;;1.60;;
23990;SDS011;12205;50.600;4.608;2023-09-08T05:03:15;11.90;;;2.10;;
23990;SDS011;12205;50.600;4.608;2023-09-08T05:05:42;3.97;;;1.60;;
23990;SDS011;12205;50.600;4.608;2023-09-08T05:08:09;5.35;;;1.58;;
23990;SDS011;12205;50.600;4.608;2023-09-08T05:10:37;8.45;;;1.95;;
23990;SDS011;12205;50.600;4.608;2023-09-08T05:13:04;4.53;;;1.60;;
23990;SDS011;12205;50.600;4.608;2023-09-08T05:15:31;3.92;;;1.63;;
23990;SDS011;12205;50.600;4.608;2023-09-08T05:17:59;5.43;;;1.40;;
23990;SDS011;12205;50.600;4.608;2023-09-08T05:20:26;5.10;;;1.83;;
23990;SDS011;12205;50.600;4.608;2023-09-08T05:22:53;9.55;;;1.95;;
23990;SDS011;12205;50.600;4.608;2023-09-08T05:25:20;4.93;;;1.70;;
23990;SDS011;12205;50.600;4.608;2023-09-08T05:27:48;5.93;;;1.58;;
23990;SDS011;12205;50.600;4.608;2023-09-08T05:30:15;11.13;;;1.95;;
23990;SDS011;12205;50.600;4.608;2023-09-08T05:32:42;10.85;;;2.13;;
23990;SDS011;12205;50.600;4.608;2023-09-08T05:35:09;10.05;;;2.08;;
23990;SDS011;12205;50.600;4.608;2023-09-08T05:37:36;8.75;;;2.20;;
23990;SDS011;12205;50.600;4.608;2023-09-08T05:40:03;10.60;;;2.20;;
23990;SDS011;12205;50.600;4.608;2023-09-08T05:42:30;12.52;;;2.60;;
23990;SDS011;12205;50.600;4.608;2023-09-08T05:44:59;8.25;;;2.00;;
23990;SDS011;12205;50.600;4.608;2023-09-08T05:47:26;19.65;;;2.70;;
23990;SDS011;12205;50.600;4.608;2023-09-08T05:49:54;14.50;;;2.30;;
23990;SDS011;12205;50.600;4.608;2023-09-08T05:52:21;8.18;;;2.63;;
23990;SDS011;12205;50.600;4.608;2023-09-08T05:54:48;10.55;;;2.10;;
23990;SDS011;12205;50.600;4.608;2023-09-08T05:57:16;8.20;;;1.98;;
23990;SDS011;12205;50.600;4.608;2023-09-08T05:59:43;7.45;;;1.65;;
23990;SDS011;12205;50.600;4.608;2023-09-08T06:02:11;5.93;;;1.65;;
23990;SDS011;12205;50.600;4.608;2023-09-08T06:04:38;22.58;;;3.33;;
23990;SDS011;12205;50.600;4.608;2023-09-08T06:07:05;15.48;;;2.25;;
23990;SDS011;12205;50.600;4.608;2023-09-08T06:09:32;10.60;;;2.42;;
23990;SDS011;12205;50.600;4.608;2023-09-08T06:11:59;9.35;;;2.58;;
23990;SDS011;12205;50.600;4.608;2023-09-08T06:14:27;7.45;;;2.67;;
23990;SDS011;12205;50.600;4.608;2023-09-08T06:16:54;10.30;;;2.25;;
23990;SDS011;12205;50.600;4.608;2023-09-08T06:19:23;8.57;;;2.35;;
23990;SDS011;12205;50.600;4.608;2023-09-08T06:21:50;12.73;;;2.80;;
23990;SDS011;12205;50.600;4.608;2023-09-08T06:24:17;11.45;;;2.60;;
23990;SDS011;12205;50.600;4.608;2023-09-08T06:26:44;14.10;;;3.60;;
23990;SDS011;12205;50.600;4.608;2023-09-08T06:29:11;8.77;;;3.50;;
23990;SDS011;12205;50.600;4.608;2023-09-08T06:31:38;9.00;;;3.53;;
23990;SDS011;12205;50.600;4.608;2023-09-08T06:34:05;12.30;;;3.53;;
23990;SDS011;12205;50.600;4.608;2023-09-08T06:36:33;8.82;;;2.90;;
23990;SDS011;12205;50.600;4.608;2023-09-08T06:39:00;9.25;;;3.08;;
23990;SDS011;12205;50.600;4.608;2023-09-08T06:41:27;10.32;;;3.10;;
23990;SDS011;12205;50.600;4.608;2023-09-08T06:43:56;12.32;;;2.90;;
23990;SDS011;12205;50.600;4.608;2023-09-08T06:46:26;10.38;;;2.78;;
23990;SDS011;12205;50.600;4.608;2023-09-08T06:48:53;6.60;;;2.88;;
23990;SDS011;12205;50.600;4.608;2023-09-08T06:51:20;16.02;;;3.22;;
23990;SDS011;12205;50.600;4.608;2023-09-08T06:53:54;9.85;;;2.70;;
23990;SDS011;12205;50.600;4.608;2023-09-08T06:56:25;9.55;;;2.88;;
23990;SDS011;12205;50.600;4.608;2023-09-08T06:58:52;8.95;;;2.70;;
23990;SDS011;12205;50.600;4.608;2023-09-08T07:01:19;11.57;;;2.90;;
23990;SDS011;12205;50.600;4.608;2023-09-08T07:03:46;8.60;;;2.80;;
23990;SDS011;12205;50.600;4.608;2023-09-08T07:06:13;14.48;;;3.17;;
23990;SDS011;12205;50.600;4.608;2023-09-08T07:08:40;6.72;;;2.72;;
23990;SDS011;12205;50.600;4.608;2023-09-08T07:11:09;8.25;;;2.55;;
23990;SDS011;12205;50.600;4.608;2023-09-08T07:13:36;9.80;;;2.80;;
23990;SDS011;12205;50.600;4.608;2023-09-08T07:16:03;5.47;;;2.60;;
23990;SDS011;12205;50.600;4.608;2023-09-08T07:18:31;9.85;;;2.60;;
23990;SDS011;12205;50.600;4.608;2023-09-08T07:21:01;5.93;;;2.60;;
23990;SDS011;12205;50.600;4.608;2023-09-08T07:23:28;8.40;;;2.40;;
23990;SDS011;12205;50.600;4.608;2023-09-08T07:25:55;7.63;;;2.60;;
23990;SDS011;12205;50.600;4.608;2023-09-08T07:28:27;5.40;;;2.27;;
23990;SDS011;12205;50.600;4.608;2023-09-08T07:31:00;11.70;;;2.88;;
23990;SDS011;12205;50.600;4.608;2023-09-08T07:33:28;7.50;;;2.60;;
23990;SDS011;12205;50.600;4.608;2023-09-08T07:35:55;12.02;;;2.60;;
23990;SDS011;12205;50.600;4.608;2023-09-08T07:38:22;9.25;;;2.60;;
23990;SDS011;12205;50.600;4.608;2023-09-08T07:40:50;7.88;;;2.50;;
23990;SDS011;12205;50.600;4.608;2023-09-08T07:43:17;6.38;;;2.22;;
23990;SDS011;12205;50.600;4.608;2023-09-08T07:45:46;7.90;;;2.50;;
23990;SDS011;12205;50.600;4.608;2023-09-08T07:48:13;7.82;;;2.70;;
23990;SDS011;12205;50.600;4.608;2023-09-08T07:50:40;7.50;;;2.60;;
23990;SDS011;12205;50.600;4.608;2023-09-08T07:53:07;7.72;;;2.35;;
23990;SDS011;12205;50.600;4.608;2023-09-08T07:55:33;5.13;;;2.28;;
23990;SDS011;12205;50.600;4.608;2023-09-08T07:58:00;10.35;;;2.28;;
23990;SDS011;12205;50.600;4.608;2023-09-08T08:00:28;6.90;;;2.55;;
23990;SDS011;12205;50.600;4.608;2023-09-08T08:02:57;6.25;;;2.40;;
23990;SDS011;12205;50.600;4.608;2023-09-08T08:05:25;5.90;;;2.35;;
23990;SDS011;12205;50.600;4.608;2023-09-08T08:07:52;7.53;;;2.47;;
23990;SDS011;12205;50.600;4.608;2023-09-08T08:10:19;6.03;;;2.30;;
23990;SDS011;12205;50.600;4.608;2023-09-08T08:12:46;7.35;;;2.60;;
23990;SDS011;12205;50.600;4.608;2023-09-08T08:15:13;6.05;;;2.67;;
23990;SDS011;12205;50.600;4.608;2023-09-08T08:17:40;7.95;;;2.80;;
23990;SDS011;12205;50.600;4.608;2023-09-08T08:20:10;15.25;;;3.67;;
23990;SDS011;12205;50.600;4.608;2023-09-08T08:22:42;11.25;;;2.70;;
23990;SDS011;12205;50.600;4.608;2023-09-08T08:25:10;7.00;;;2.42;;
23990;SDS011;12205;50.600;4.608;2023-09-08T08:27:37;6.18;;;2.30;;
23990;SDS011;12205;50.600;4.608;2023-09-08T08:30:05;11.38;;;2.88;;
23990;SDS011;12205;50.600;4.608;2023-09-08T08:32:33;6.20;;;2.35;;
23990;SDS011;12205;50.600;4.608;2023-09-08T08:35:00;8.30;;;2.45;;
23990;SDS011;12205;50.600;4.608;2023-09-08T08:37:28;7.25;;;2.55;;
23990;SDS011;12205;50.600;4.608;2023-09-08T08:39:55;10.98;;;2.75;;
23990;SDS011;12205;50.600;4.608;2023-09-08T08:42:22;12.18;;;2.58;;
23990;SDS011;12205;50.600;4.608;2023-09-08T08:44:49;13.60;;;2.60;;
23990;SDS011;12205;50.600;4.608;2023-09-08T08:47:16;11.02;;;2.65;;
23990;SDS011;12205;50.600;4.608;2023-09-08T08:49:45;15.98;;;2.58;;
23990;SDS011;12205;50.600;4.608;2023-09-08T08:52:14;16.13;;;3.03;;
23990;SDS011;12205;50.600;4.608;2023-09-08T08:54:44;7.55;;;2.85;;
23990;SDS011;12205;50.600;4.608;2023-09-08T08:57:11;12.73;;;2.42;;
23990;SDS011;12205;50.600;4.608;2023-09-08T08:59:39;9.45;;;2.38;;
23990;SDS011;12205;50.600;4.608;2023-09-08T09:02:07;12.63;;;2.70;;
23990;SDS011;12205;50.600;4.608;2023-09-08T09:04:36;10.45;;;2.45;;
23990;SDS011;12205;50.600;4.608;2023-09-08T09:07:03;62.30;;;6.10;;
23990;SDS011;12205;50.600;4.608;2023-09-08T09:09:32;12.90;;;2.95;;
23990;SDS011;12205;50.600;4.608;2023-09-08T09:12:01;7.75;;;2.22;;
23990;SDS011;12205;50.600;4.608;2023-09-08T09:14:31;6.07;;;2.50;;
23990;SDS011;12205;50.600;4.608;2023-09-08T09:16:59;10.63;;;2.50;;
23990;SDS011;12205;50.600;4.608;2023-09-08T09:19:26;10.48;;;2.40;;
23990;SDS011;12205;50.600;4.608;2023-09-08T09:21:55;8.77;;;2.60;;
23990;SDS011;12205;50.600;4.608;2023-09-08T09:24:29;6.90;;;2.30;;
23990;SDS011;12205;50.600;4.608;2023-09-08T09:26:58;9.15;;;2.22;;
23990;SDS011;12205;50.600;4.608;2023-09-08T09:29:27;7.03;;;2.28;;
23990;SDS011;12205;50.600;4.608;2023-09-08T09:31:55;7.63;;;2.30;;
23990;SDS011;12205;50.600;4.608;2023-09-08T09:34:24;11.88;;;2.72;;
23990;SDS011;12205;50.600;4.608;2023-09-08T09:36:51;8.20;;;2.13;;
23990;SDS011;12205;50.600;4.608;2023-09-08T09:39:19;8.25;;;1.98;;
23990;SDS011;12205;50.600;4.608;2023-09-08T09:41:46;9.65;;;2.00;;
23990;SDS011;12205;50.600;4.608;2023-09-08T09:44:15;7.70;;;2.33;;
23990;SDS011;12205;50.600;4.608;2023-09-08T09:46:43;7.70;;;2.10;;
23990;SDS011;12205;50.600;4.608;2023-09-08T09:49:11;7.25;;;1.80;;
23990;SDS011;12205;50.600;4.608;2023-09-08T09:51:42;7.57;;;2.05;;
23990;SDS011;12205;50.600;4.608;2023-09-08T09:56:37;9.32;;;1.98;;
23990;SDS011;12205;50.600;4.608;2023-09-08T09:59:04;6.25;;;1.95;;
23990;SDS011;12205;50.600;4.608;2023-09-08T10:01:35;10.95;;;2.05;;
23990;SDS011;12205;50.600;4.608;2023-09-08T10:04:02;9.65;;;2.40;;
23990;SDS011;12205;50.600;4.608;2023-09-08T10:06:30;11.82;;;2.22;;
23990;SDS011;12205;50.600;4.608;2023-09-08T10:08:58;9.60;;;2.00;;
23990;SDS011;12205;50.600;4.608;2023-09-08T10:11:28;6.38;;;2.00;;
23990;SDS011;12205;50.600;4.608;2023-09-08T10:13:57;11.15;;;2.10;;
23990;SDS011;12205;50.600;4.608;2023-09-08T10:16:26;7.00;;;2.05;;
23990;SDS011;12205;50.600;4.608;2023-09-08T10:18:55;12.50;;;2.30;;
23990;SDS011;12205;50.600;4.608;2023-09-08T10:21:25;7.45;;;2.25;;
23990;SDS011;12205;50.600;4.608;2023-09-08T10:23:57;11.97;;;2.60;;
23990;SDS011;12205;50.600;4.608;2023-09-08T10:26:34;11.98;;;2.25;;
23990;SDS011;12205;50.600;4.608;2023-09-08T10:29:04;13.83;;;2.50;;
23990;SDS011;12205;50.600;4.608;2023-09-08T10:31:31;12.38;;;2.65;;
23990;SDS011;12205;50.600;4.608;2023-09-08T10:34:00;13.73;;;2.40;;
23990;SDS011;12205;50.600;4.608;2023-09-08T10:36:28;9.50;;;1.92;;
23990;SDS011;12205;50.600;4.608;2023-09-08T10:39:01;8.45;;;2.30;;
23990;SDS011;12205;50.600;4.608;2023-09-08T10:44:59;16.70;;;2.53;;
23990;SDS011;12205;50.600;4.608;2023-09-08T10:47:33;9.50;;;2.42;;
23990;SDS011;12205;50.600;4.608;2023-09-08T10:50:11;10.82;;;2.28;;
23990;SDS011;12205;50.600;4.608;2023-09-08T10:52:42;10.32;;;1.70;;
23990;SDS011;12205;50.600;4.608;2023-09-08T10:55:09;7.63;;;1.80;;
23990;SDS011;12205;50.600;4.608;2023-09-08T10:57:37;7.05;;;1.60;;
23990;SDS011;12205;50.600;4.608;2023-09-08T11:00:10;6.30;;;1.85;;
23990;SDS011;12205;50.600;4.608;2023-09-08T11:02:47;4.82;;;1.27;;
23990;SDS011;12205;50.600;4.608;2023-09-08T11:05:16;5.13;;;1.30;;
23990;SDS011;12205;50.600;4.608;2023-09-08T11:07:45;6.95;;;1.27;;
23990;SDS011;12205;50.600;4.608;2023-09-08T11:10:16;6.85;;;1.17;;
23990;SDS011;12205;50.600;4.608;2023-09-08T11:12:42;6.47;;;1.13;;
23990;SDS011;12205;50.600;4.608;2023-09-08T11:15:10;3.03;;;1.10;;
23990;SDS011;12205;50.600;4.608;2023-09-08T11:17:37;6.30;;;1.10;;
23990;SDS011;12205;50.600;4.608;2023-09-08T11:20:07;5.80;;;1.52;;
23990;SDS011;12205;50.600;4.608;2023-09-08T11:22:37;6.82;;;1.20;;
23990;SDS011;12205;50.600;4.608;2023-09-08T11:25:06;8.13;;;1.10;;
23990;SDS011;12205;50.600;4.608;2023-09-08T11:27:36;10.90;;;1.02;;
23990;SDS011;12205;50.600;4.608;2023-09-08T11:30:05;4.07;;;1.00;;
23990;SDS011;12205;50.600;4.608;2023-09-08T11:32:34;5.53;;;1.10;;
23990;SDS011;12205;50.600;4.608;2023-09-08T11:35:03;6.85;;;0.90;;
23990;SDS011;12205;50.600;4.608;2023-09-08T11:37:34;6.10;;;1.27;;
23990;SDS011;12205;50.600;4.608;2023-09-08T11:40:04;4.70;;;1.10;;
23990;SDS011;12205;50.600;4.608;2023-09-08T11:42:34;7.05;;;0.90;;
23990;SDS011;12205;50.600;4.608;2023-09-08T11:45:01;5.78;;;0.95;;
23990;SDS011;12205;50.600;4.608;2023-09-08T11:47:29;10.32;;;1.10;;
23990;SDS011;12205;50.600;4.608;2023-09-08T11:49:57;5.55;;;0.65;;
23990;SDS011;12205;50.600;4.608;2023-09-08T11:52:24;8.18;;;0.77;;
23990;SDS011;12205;50.600;4.608;2023-09-08T11:54:51;8.50;;;1.30;;
23990;SDS011;12205;50.600;4.608;2023-09-08T11:57:19;7.28;;;1.00;;
23990;SDS011;12205;50.600;4.608;2023-09-08T11:59:47;5.25;;;0.80;;
23990;SDS011;12205;50.600;4.608;2023-09-08T12:02:15;13.93;;;1.15;;
23990;SDS011;12205;50.600;4.608;2023-09-08T12:04:42;5.25;;;0.88;;
23990;SDS011;12205;50.600;4.608;2023-09-08T12:07:12;2.53;;;0.75;;
23990;SDS011;12205;50.600;4.608;2023-09-08T12:09:41;10.93;;;0.90;;
23990;SDS011;12205;50.600;4.608;2023-09-08T12:12:10;5.07;;;0.82;;
23990;SDS011;12205;50.600;4.608;2023-09-08T12:14:41;11.30;;;0.75;;
23990;SDS011;12205;50.600;4.608;2023-09-08T12:17:09;8.30;;;0.90;;
23990;SDS011;12205;50.600;4.608;2023-09-08T12:19:38;10.32;;;0.75;;
23990;SDS011;12205;50.600;4.608;2023-09-08T12:22:07;6.00;;;0.70;;
23990;SDS011;12205;50.600;4.608;2023-09-08T12:24:46;9.13;;;0.85;;
23990;SDS011;12205;50.600;4.608;2023-09-08T12:27:13;5.65;;;0.60;;
23990;SDS011;12205;50.600;4.608;2023-09-08T12:29:42;4.68;;;0.60;;
23990;SDS011;12205;50.600;4.608;2023-09-08T12:32:17;9.90;;;0.70;;
23990;SDS011;12205;50.600;4.608;2023-09-08T12:34:45;7.80;;;0.80;;
23990;SDS011;12205;50.600;4.608;2023-09-08T12:37:11;9.40;;;0.70;;
23990;SDS011;12205;50.600;4.608;2023-09-08T12:39:39;8.95;;;0.70;;
23990;SDS011;12205;50.600;4.608;2023-09-08T12:42:06;7.93;;;0.73;;
23990;SDS011;12205;50.600;4.608;2023-09-08T12:44:33;8.70;;;0.63;;
23990;SDS011;12205;50.600;4.608;2023-09-08T12:47:01;7.72;;;0.88;;
23990;SDS011;12205;50.600;4.608;2023-09-08T12:49:28;6.10;;;0.60;;
23990;SDS011;12205;50.600;4.608;2023-09-08T12:51:54;5.78;;;0.70;;
23990;SDS011;12205;50.600;4.608;2023-09-08T12:54:21;4.25;;;0.50;;
23990;SDS011;12205;50.600;4.608;2023-09-08T12:56:49;9.68;;;0.70;;
23990;SDS011;12205;50.600;4.608;2023-09-08T12:59:16;10.18;;;0.60;;
23990;SDS011;12205;50.600;4.608;2023-09-08T13:01:43;10.13;;;0.73;;
23990;SDS011;12205;50.600;4.608;2023-09-08T13:04:11;6.68;;;0.60;;
23990;SDS011;12205;50.600;4.608;2023-09-08T13:06:38;9.15;;;0.82;;
23990;SDS011;12205;50.600;4.608;2023-09-08T13:09:05;9.55;;;0.90;;
23990;SDS011;12205;50.600;4.608;2023-09-08T13:11:32;12.50;;;0.90;;
23990;SDS011;12205;50.600;4.608;2023-09-08T13:13:59;9.13;;;0.65;;
23990;SDS011;12205;50.600;4.608;2023-09-08T13:16:26;9.90;;;1.00;;
23990;SDS011;12205;50.600;4.608;2023-09-08T13:18:53;7.53;;;0.80;;
23990;SDS011;12205;50.600;4.608;2023-09-08T13:21:21;9.63;;;0.77;;
23990;SDS011;12205;50.600;4.608;2023-09-08T13:23:48;12.20;;;0.88;;
23990;SDS011;12205;50.600;4.608;2023-09-08T13:26:15;11.52;;;0.80;;
23990;SDS011;12205;50.600;4.608;2023-09-08T13:28:42;14.40;;;0.98;;
23990;SDS011;12205;50.600;4.608;2023-09-08T13:31:09;9.20;;;0.80;;
23990;SDS011;12205;50.600;4.608;2023-09-08T13:33:36;9.38;;;0.80;;
23990;SDS011;12205;50.600;4.608;2023-09-08T13:36:03;11.80;;;0.70;;
23990;SDS011;12205;50.600;4.608;2023-09-08T13:38:31;7.40;;;0.80;;
23990;SDS011;12205;50.600;4.608;2023-09-08T13:40:58;13.85;;;0.73;;
23990;SDS011;12205;50.600;4.608;2023-09-08T13:43:25;11.63;;;1.10;;
23990;SDS011;12205;50.600;4.608;2023-09-08T13:45:52;11.63;;;1.20;;
23990;SDS011;12205;50.600;4.608;2023-09-08T13:48:19;14.57;;;1.40;;
23990;SDS011;12205;50.600;4.608;2023-09-08T13:50:45;16.25;;;1.40;;
23990;SDS011;12205;50.600;4.608;2023-09-08T13:53:12;15.20;;;1.20;;
23990;SDS011;12205;50.600;4.608;2023-09-08T13:55:41;11.82;;;1.20;;
23990;SDS011;12205;50.600;4.608;2023-09-08T13:58:08;15.47;;;1.30;;
23990;SDS011;12205;50.600;4.608;2023-09-08T14:00:36;19.35;;;1.48;;
23990;SDS011;12205;50.600;4.608;2023-09-08T14:03:04;12.48;;;1.10;;
23990;SDS011;12205;50.600;4.608;2023-09-08T14:05:31;10.25;;;0.93;;
23990;SDS011;12205;50.600;4.608;2023-09-08T14:07:57;10.13;;;1.20;;
23990;SDS011;12205;50.600;4.608;2023-09-08T14:10:24;9.00;;;0.82;;
23990;SDS011;12205;50.600;4.608;2023-09-08T14:12:52;10.00;;;0.70;;
23990;SDS011;12205;50.600;4.608;2023-09-08T14:15:19;13.90;;;1.02;;
23990;SDS011;12205;50.600;4.608;2023-09-08T14:17:46;11.30;;;1.17;;
23990;SDS011;12205;50.600;4.608;2023-09-08T14:20:13;14.52;;;1.10;;
23990;SDS011;12205;50.600;4.608;2023-09-08T14:22:40;9.50;;;1.00;;
23990;SDS011;12205;50.600;4.608;2023-09-08T14:25:07;15.60;;;1.15;;
23990;SDS011;12205;50.600;4.608;2023-09-08T14:30:05;14.30;;;1.30;;
23990;SDS011;12205;50.600;4.608;2023-09-08T14:32:33;14.60;;;1.45;;
23990;SDS011;12205;50.600;4.608;2023-09-08T14:35:00;11.70;;;1.38;;
23990;SDS011;12205;50.600;4.608;2023-09-08T14:37:26;13.98;;;1.25;;
23990;SDS011;12205;50.600;4.608;2023-09-08T14:39:53;11.27;;;1.00;;
23990;SDS011;12205;50.600;4.608;2023-09-08T14:42:20;16.45;;;1.27;;
23990;SDS011;12205;50.600;4.608;2023-09-08T14:44:47;9.48;;;0.85;;
23990;SDS011;12205;50.600;4.608;2023-09-08T14:47:18;13.55;;;1.00;;
23990;SDS011;12205;50.600;4.608;2023-09-08T14:49:44;18.45;;;1.00;;
23990;SDS011;12205;50.600;4.608;2023-09-08T14:52:11;10.95;;;1.00;;
23990;SDS011;12205;50.600;4.608;2023-09-08T14:54:38;14.90;;;1.27;;
23990;SDS011;12205;50.600;4.608;2023-09-08T14:57:06;10.77;;;1.00;;